createdAt,value
2019-05-18T00:01:23.596Z,4.07
2019-05-18T00:03:52.498Z,3.63
2019-05-18T00:06:21.573Z,5.80
2019-05-18T00:08:50.489Z,4.10
2019-05-18T00:11:19.439Z,4.87
2019-05-18T00:13:49.952Z,4.10
2019-05-18T00:16:19.972Z,3.67
2019-05-18T00:18:48.879Z,4.03
2019-05-18T00:21:17.773Z,4.17
2019-05-18T00:23:46.658Z,4.00
2019-05-18T00:26:15.555Z,4.20
2019-05-18T00:28:46.063Z,4.00
2019-05-18T00:31:16.045Z,4.27
2019-05-18T00:33:45.005Z,4.03
2019-05-18T00:36:13.967Z,4.37
2019-05-18T00:38:42.929Z,4.27
2019-05-18T00:41:11.901Z,4.37
2019-05-18T00:43:40.860Z,5.30
2019-05-18T00:46:09.748Z,5.00
2019-05-18T00:48:38.666Z,4.47
2019-05-18T00:51:08.636Z,4.70
2019-05-18T00:53:37.608Z,4.30
2019-05-18T00:56:06.843Z,4.40
2019-05-18T00:58:35.796Z,4.63
2019-05-18T01:01:04.949Z,4.73
2019-05-18T01:03:33.866Z,4.17
2019-05-18T01:06:02.772Z,4.63
2019-05-18T01:08:31.724Z,4.40
2019-05-18T01:11:00.638Z,4.53
2019-05-18T01:13:29.603Z,4.03
2019-05-18T01:15:58.482Z,4.57
2019-05-18T01:18:27.381Z,4.50
2019-05-18T01:20:58.105Z,4.00
2019-05-18T01:23:26.993Z,4.23
2019-05-18T01:25:55.895Z,4.70
2019-05-18T01:28:24.826Z,4.43
2019-05-18T01:30:53.718Z,4.70
2019-05-18T01:33:22.605Z,4.40
2019-05-18T01:35:52.577Z,4.47
2019-05-18T01:38:21.468Z,4.90
2019-05-18T01:40:50.439Z,5.00
2019-05-18T01:43:19.364Z,4.87
2019-05-18T01:45:48.261Z,4.90
2019-05-18T01:48:17.139Z,4.10
2019-05-18T01:50:46.114Z,4.77
2019-05-18T01:53:15.064Z,4.30
2019-05-18T01:55:44.003Z,4.57
2019-05-18T01:58:12.899Z,4.70
2019-05-18T02:00:41.795Z,4.40
2019-05-18T02:03:11.791Z,5.00
2019-05-18T02:05:41.051Z,4.53
2019-05-18T02:08:09.931Z,5.07
2019-05-18T02:10:38.929Z,4.37
2019-05-18T02:13:07.816Z,4.63
2019-05-18T02:15:36.714Z,4.00
2019-05-18T02:18:05.718Z,4.20
2019-05-18T02:20:34.606Z,5.40
2019-05-18T02:23:03.572Z,4.40
2019-05-18T02:25:32.543Z,4.43
2019-05-18T02:28:02.492Z,4.70
2019-05-18T02:30:31.385Z,4.73
2019-05-18T02:33:00.297Z,4.97
2019-05-18T02:35:29.209Z,4.30
2019-05-18T02:38:16.822Z,4.23
2019-05-18T02:40:46.078Z,4.67
2019-05-18T02:43:15.425Z,4.30
2019-05-18T02:45:44.346Z,4.77
2019-05-18T02:48:13.294Z,4.27
2019-05-18T02:50:42.263Z,4.23
2019-05-18T02:53:11.351Z,4.40
2019-05-18T02:55:40.243Z,4.00
2019-05-18T02:58:09.126Z,4.40
2019-05-18T03:00:38.114Z,5.53
2019-05-18T03:03:08.071Z,5.10
2019-05-18T03:05:36.950Z,4.90
2019-05-18T03:08:05.958Z,4.80
2019-05-18T03:10:34.999Z,4.67
2019-05-18T03:13:04.954Z,4.90
2019-05-18T03:15:33.880Z,4.80
2019-05-18T03:18:02.775Z,4.90
2019-05-18T03:20:31.725Z,5.93
2019-05-18T03:23:00.689Z,5.17
2019-05-18T03:25:29.573Z,4.70
2019-05-18T03:27:58.480Z,5.63
2019-05-18T03:30:27.369Z,4.87
2019-05-18T03:32:56.258Z,5.40
2019-05-18T03:35:25.180Z,5.03
2019-05-18T03:37:54.067Z,5.73
2019-05-18T03:40:22.949Z,5.70
2019-05-18T03:42:51.877Z,5.60
2019-05-18T03:45:20.758Z,5.97
2019-05-18T03:47:49.648Z,5.60
2019-05-18T03:50:18.618Z,5.50
2019-05-18T03:52:47.514Z,5.50
2019-05-18T03:55:16.410Z,5.40
2019-05-18T03:57:45.308Z,5.60
2019-05-18T04:00:14.368Z,6.30
2019-05-18T04:02:43.251Z,5.50
2019-05-18T04:05:12.241Z,5.43
2019-05-18T04:07:41.140Z,5.57
2019-05-18T04:10:10.194Z,6.23
2019-05-18T04:12:39.127Z,6.23
2019-05-18T04:15:08.454Z,6.10
2019-05-18T04:17:37.363Z,6.00
2019-05-18T04:20:06.426Z,6.07
2019-05-18T04:22:35.314Z,5.97
2019-05-18T04:25:04.677Z,5.20
2019-05-18T04:27:33.620Z,6.20
2019-05-18T04:30:02.587Z,6.40
2019-05-18T04:32:31.540Z,6.10
2019-05-18T04:35:00.459Z,6.07
2019-05-18T04:37:29.346Z,5.83
2019-05-18T04:39:58.247Z,5.90
2019-05-18T04:42:27.163Z,5.87
2019-05-18T04:44:56.720Z,6.90
2019-05-18T04:47:25.617Z,8.70
2019-05-18T04:50:04.547Z,9.50
2019-05-18T04:52:25.129Z,9.90
2019-05-18T04:54:54.084Z,9.00
2019-05-18T04:57:22.991Z,7.97
2019-05-18T04:59:51.895Z,8.90
2019-05-18T05:02:20.786Z,7.87
2019-05-18T05:04:53.900Z,7.73
2019-05-18T05:07:20.418Z,8.10
2019-05-18T05:09:49.303Z,9.23
2019-05-18T05:12:20.175Z,9.97
2019-05-18T05:14:49.253Z,9.37
2019-05-18T05:17:18.147Z,10.03
2019-05-18T05:19:47.039Z,10.70
2019-05-18T05:22:15.947Z,10.97
2019-05-18T05:24:44.857Z,10.00
2019-05-18T05:27:13.830Z,12.00
2019-05-18T05:29:42.794Z,11.00
2019-05-18T05:32:11.714Z,11.77
2019-05-18T05:34:41.685Z,10.47
2019-05-18T05:37:10.582Z,10.37
2019-05-18T05:39:39.485Z,9.70
2019-05-18T05:42:08.387Z,10.03
2019-05-18T05:44:37.272Z,9.57
2019-05-18T05:47:06.189Z,8.10
2019-05-18T05:49:35.084Z,7.70
2019-05-18T05:52:04.036Z,7.27
2019-05-18T05:54:32.968Z,7.20
2019-05-18T05:57:01.856Z,7.20
2019-05-18T05:59:30.743Z,6.77
2019-05-18T06:01:59.943Z,7.07
2019-05-18T06:04:28.829Z,6.60
2019-05-18T06:06:57.798Z,7.13
2019-05-18T06:09:26.709Z,7.20
2019-05-18T06:11:55.601Z,6.53
2019-05-18T06:14:24.484Z,6.77
2019-05-18T06:16:53.472Z,6.57
2019-05-18T06:19:22.360Z,6.30
2019-05-18T06:21:51.258Z,6.30
2019-05-18T06:24:20.452Z,6.30
2019-05-18T06:26:49.345Z,7.63
2019-05-18T06:29:18.334Z,6.53
2019-05-18T06:31:47.239Z,5.90
2019-05-18T06:34:16.139Z,6.10
2019-05-18T06:36:45.034Z,6.03
2019-05-18T06:39:14.161Z,7.20
2019-05-18T06:41:43.119Z,6.60
2019-05-18T06:44:12.060Z,6.00
2019-05-18T06:46:41.100Z,5.40
2019-05-18T06:49:10.067Z,5.67
2019-05-18T06:51:38.948Z,5.87
2019-05-18T06:54:07.875Z,5.43
2019-05-18T06:56:36.850Z,5.37
2019-05-18T06:59:06.099Z,4.93
2019-05-18T07:01:35.034Z,5.17
2019-05-18T07:04:04.005Z,4.80
2019-05-18T07:06:32.896Z,5.27
2019-05-18T07:09:01.940Z,4.80
2019-05-18T07:11:32.782Z,4.70
2019-05-18T07:14:01.677Z,5.37
2019-05-18T07:16:30.608Z,5.27
2019-05-18T07:18:59.497Z,5.67
2019-05-18T07:21:28.378Z,5.27
2019-05-18T07:23:57.297Z,5.07
2019-05-18T07:26:26.210Z,4.90
2019-05-18T07:28:55.117Z,4.67
2019-05-18T07:31:24.118Z,5.40
2019-05-18T07:33:52.995Z,4.70
2019-05-18T07:36:22.863Z,5.63
2019-05-18T07:38:51.801Z,5.23
2019-05-18T07:41:21.525Z,5.47
2019-05-18T07:43:50.481Z,6.20
2019-05-18T07:46:19.417Z,5.57
2019-05-18T07:48:48.372Z,5.83
2019-05-18T07:51:17.274Z,6.20
2019-05-18T07:53:46.191Z,5.43
2019-05-18T07:56:15.076Z,4.90
2019-05-18T07:58:43.968Z,4.70
2019-05-18T08:01:12.928Z,4.07
2019-05-18T08:03:41.817Z,5.40
2019-05-18T08:06:10.736Z,5.00
2019-05-18T08:08:39.622Z,4.73
2019-05-18T08:11:08.500Z,4.90
2019-05-18T08:13:37.397Z,5.30
2019-05-18T08:16:06.288Z,5.30
2019-05-18T08:18:35.184Z,6.37
2019-05-18T08:21:04.114Z,5.80
2019-05-18T08:23:33.129Z,5.87
2019-05-18T08:26:02.098Z,4.90
2019-05-18T08:28:31.049Z,5.67
2019-05-18T08:31:00.076Z,5.47
2019-05-18T08:33:29.049Z,5.43
2019-05-18T08:35:58.028Z,6.17
2019-05-18T08:38:26.995Z,5.97
2019-05-18T08:40:55.880Z,5.20
2019-05-18T08:43:24.898Z,5.50
2019-05-18T08:45:53.795Z,5.53
2019-05-18T08:48:22.683Z,4.80
2019-05-18T08:50:51.611Z,5.73
2019-05-18T08:53:20.504Z,5.53
2019-05-18T08:55:49.469Z,4.93
2019-05-18T08:58:18.401Z,5.20
2019-05-18T09:00:47.367Z,5.13
2019-05-18T09:03:16.256Z,4.83
2019-05-18T09:05:45.206Z,5.60
2019-05-18T09:08:14.098Z,5.50
2019-05-18T09:10:43.201Z,5.60
2019-05-18T09:13:12.146Z,5.27
2019-05-18T09:15:42.000Z,5.10
2019-05-18T09:18:10.964Z,5.27
2019-05-18T09:20:39.863Z,6.13
2019-05-18T09:23:08.798Z,5.90
2019-05-18T09:25:37.706Z,5.97
2019-05-18T09:28:06.595Z,5.93
2019-05-18T09:30:35.577Z,5.60
2019-05-18T09:33:04.526Z,6.13
2019-05-18T09:35:33.517Z,5.97
2019-05-18T09:38:02.412Z,6.10
2019-05-18T09:40:31.306Z,6.37
2019-05-18T09:43:00.216Z,5.77
2019-05-18T09:45:29.124Z,6.33
2019-05-18T09:47:58.012Z,6.33
2019-05-18T09:50:26.904Z,6.27
2019-05-18T09:52:55.817Z,6.63
2019-05-18T09:55:24.696Z,6.60
2019-05-18T09:57:53.590Z,6.73
2019-05-18T10:00:22.638Z,6.40
2019-05-18T10:02:51.511Z,5.73
2019-05-18T10:05:20.553Z,5.13
2019-05-18T10:07:49.533Z,5.70
2019-05-18T10:10:18.415Z,5.40
2019-05-18T10:12:47.492Z,6.40
2019-05-18T10:15:16.521Z,5.17
2019-05-18T10:17:45.412Z,4.70
2019-05-18T10:20:14.412Z,4.63
2019-05-18T10:22:55.508Z,4.60
2019-05-18T10:25:15.140Z,5.40
2019-05-18T10:27:44.027Z,6.07
2019-05-18T10:30:13.281Z,6.00
2019-05-18T10:32:42.216Z,5.20
2019-05-18T10:35:11.169Z,4.97
2019-05-18T10:37:40.132Z,5.63
2019-05-18T10:40:09.492Z,5.70
2019-05-18T10:42:38.379Z,5.60
2019-05-18T10:45:07.753Z,5.23
2019-05-18T10:47:36.746Z,5.40
2019-05-18T10:50:06.272Z,5.50
2019-05-18T10:52:35.166Z,5.27
2019-05-18T10:55:05.694Z,5.00
2019-05-18T10:57:34.653Z,5.10
2019-05-18T11:00:07.792Z,5.47
2019-05-18T11:02:37.172Z,4.87
2019-05-18T11:05:06.785Z,4.30
2019-05-18T11:07:35.702Z,4.10
2019-05-18T11:10:07.520Z,4.30
2019-05-18T11:12:36.427Z,4.57
2019-05-18T11:15:06.205Z,5.27
2019-05-18T11:17:35.173Z,4.30
2019-05-18T11:20:07.713Z,5.13
2019-05-18T11:22:36.592Z,5.03
2019-05-18T11:25:06.651Z,5.23
2019-05-18T11:27:35.644Z,4.83
2019-05-18T11:30:08.135Z,5.30
2019-05-18T11:32:37.734Z,5.20
2019-05-18T11:35:07.221Z,5.70
2019-05-18T11:37:36.112Z,5.40
2019-05-18T11:40:08.344Z,5.70
2019-05-18T11:42:37.248Z,5.70
2019-05-18T11:45:09.798Z,5.80
2019-05-18T11:47:38.766Z,5.97
2019-05-18T11:50:08.601Z,5.77
2019-05-18T11:52:37.503Z,6.70
2019-05-18T11:55:06.866Z,5.83
2019-05-18T11:57:37.179Z,5.93
2019-05-18T12:00:10.710Z,6.90
2019-05-18T12:02:39.664Z,7.07
2019-05-18T12:05:10.189Z,6.80
2019-05-18T12:07:39.176Z,7.60
2019-05-18T12:10:08.346Z,6.30
2019-05-18T12:12:37.302Z,5.90
2019-05-18T12:15:07.000Z,6.03
2019-05-18T12:17:35.973Z,6.20
2019-05-18T12:20:05.231Z,6.23
2019-05-18T12:22:34.163Z,6.47
2019-05-18T12:25:03.340Z,6.13
2019-05-18T12:27:32.299Z,6.17
2019-05-18T12:30:01.215Z,6.10
2019-05-18T12:32:30.171Z,5.67
2019-05-18T12:34:59.061Z,5.20
2019-05-18T12:43:55.327Z,4.53
2019-05-18T12:46:24.287Z,4.70
2019-05-18T12:48:53.186Z,5.03
2019-05-18T12:51:22.165Z,4.07
2019-05-18T12:53:51.057Z,5.20
2019-05-18T12:56:20.020Z,4.73
2019-05-18T12:58:49.024Z,4.57
2019-05-18T13:01:17.899Z,4.80
2019-05-18T13:03:46.783Z,4.30
2019-05-18T13:06:15.820Z,4.53
2019-05-18T13:08:44.754Z,4.60
2019-05-18T13:11:13.818Z,4.17
2019-05-18T13:13:42.753Z,4.40
2019-05-18T13:16:11.644Z,5.07
2019-05-18T13:18:40.534Z,4.80
2019-05-18T13:21:09.527Z,4.73
2019-05-18T13:23:38.419Z,4.93
2019-05-18T13:26:07.375Z,4.73
2019-05-18T13:28:36.302Z,4.70
2019-05-18T13:31:05.186Z,4.37
2019-05-18T13:33:34.074Z,4.43
2019-05-18T13:36:02.982Z,4.67
2019-05-18T13:38:31.881Z,4.62
2019-05-18T13:41:00.817Z,4.10
2019-05-18T13:43:29.794Z,4.37
2019-05-18T13:45:58.686Z,4.20
2019-05-18T13:48:27.750Z,4.60
2019-05-18T13:50:56.634Z,4.87
2019-05-18T13:53:26.598Z,4.90
2019-05-18T13:55:55.519Z,4.10
2019-05-18T13:58:24.409Z,4.10
2019-05-18T14:00:53.292Z,4.67
2019-05-18T14:03:22.186Z,4.73
2019-05-18T14:05:51.101Z,4.77
2019-05-18T14:08:20.084Z,4.80
2019-05-18T14:10:48.972Z,4.80
2019-05-18T14:13:17.863Z,5.10
2019-05-18T14:15:46.799Z,4.90
2019-05-18T14:18:15.686Z,5.17
2019-05-18T14:20:44.738Z,4.80
2019-05-18T14:23:14.614Z,4.90
2019-05-18T14:26:02.829Z,4.93
2019-05-18T14:28:31.735Z,4.90
2019-05-18T14:31:00.619Z,5.10
2019-05-18T14:33:29.518Z,5.07
2019-05-18T14:35:58.440Z,5.00
2019-05-18T14:38:27.393Z,5.67
2019-05-18T14:40:57.265Z,4.90
2019-05-18T14:43:26.254Z,4.57
2019-05-18T14:45:55.145Z,3.83
2019-05-18T14:48:24.032Z,3.70
2019-05-18T14:50:52.957Z,4.37
2019-05-18T14:53:21.842Z,3.50
2019-05-18T14:55:50.774Z,3.97
2019-05-18T14:58:19.736Z,3.57
2019-05-18T15:00:48.624Z,3.70
2019-05-18T15:03:17.529Z,3.63
2019-05-18T15:05:46.462Z,3.70
2019-05-18T15:08:15.370Z,4.40
2019-05-18T15:10:45.406Z,3.30
2019-05-18T15:13:14.326Z,4.73
2019-05-18T15:15:43.225Z,4.27
2019-05-18T15:18:12.107Z,4.37
2019-05-18T15:20:41.201Z,3.50
2019-05-18T15:23:10.084Z,4.23
2019-05-18T15:25:50.106Z,4.33
2019-05-18T15:28:09.581Z,4.87
2019-05-18T15:30:38.527Z,4.80
2019-05-18T15:33:07.524Z,5.00
2019-05-18T15:35:36.411Z,4.93
2019-05-18T15:38:05.373Z,5.87
2019-05-18T15:40:34.357Z,4.97
2019-05-18T15:43:03.318Z,4.87
2019-05-18T15:45:32.209Z,4.80
2019-05-18T15:48:02.327Z,4.90
2019-05-18T15:50:31.282Z,4.27
2019-05-18T15:53:00.174Z,4.47
2019-05-18T15:55:29.094Z,4.97
2019-05-18T15:57:58.044Z,4.40
2019-05-18T16:00:27.198Z,4.77
2019-05-18T16:02:56.121Z,5.10
2019-05-18T16:05:25.012Z,5.20
2019-05-18T16:07:54.076Z,4.70
2019-05-18T16:10:24.133Z,4.50
2019-05-18T16:12:54.595Z,4.63
2019-05-18T16:15:23.565Z,11.13
2019-05-18T16:17:52.489Z,4.77
2019-05-18T16:20:21.450Z,4.43
2019-05-18T16:22:50.429Z,5.13
2019-05-18T16:25:20.426Z,5.17
2019-05-18T16:27:49.320Z,4.80
2019-05-18T16:30:18.376Z,4.70
2019-05-18T16:32:48.281Z,5.43
2019-05-18T16:35:17.236Z,5.40
2019-05-18T16:37:46.123Z,4.43
2019-05-18T16:40:15.303Z,4.50
2019-05-18T16:42:46.580Z,5.10
2019-05-18T16:45:15.287Z,4.70
2019-05-18T16:47:44.238Z,6.40
2019-05-18T16:50:13.503Z,4.17
2019-05-18T16:52:42.397Z,5.10
2019-05-18T16:55:11.427Z,4.33
2019-05-18T16:57:40.362Z,4.90
2019-05-18T17:00:15.900Z,5.77
2019-05-18T17:02:43.469Z,6.23
2019-05-18T17:05:13.456Z,4.60
2019-05-18T17:07:42.344Z,5.43
2019-05-18T17:10:12.816Z,4.90
2019-05-18T17:12:41.717Z,4.70
2019-05-18T17:15:10.837Z,4.97
2019-05-18T17:17:39.847Z,4.30
2019-05-18T17:20:08.812Z,4.90
2019-05-18T17:22:37.764Z,5.47
2019-05-18T17:25:06.873Z,5.07
2019-05-18T17:27:35.836Z,5.03
2019-05-18T17:30:06.602Z,5.30
2019-05-18T17:32:35.526Z,5.70
2019-05-18T17:35:08.190Z,5.17
2019-05-18T17:37:37.138Z,4.93
2019-05-18T17:40:06.092Z,5.47
2019-05-18T17:42:35.054Z,4.77
2019-05-18T17:45:06.596Z,4.80
2019-05-18T17:47:35.565Z,5.30
2019-05-18T17:50:06.060Z,5.43
2019-05-18T17:52:35.053Z,5.43
2019-05-18T17:55:04.877Z,5.40
2019-05-18T17:57:33.766Z,5.10
2019-05-18T18:00:03.354Z,5.80
2019-05-18T18:02:32.515Z,5.87
2019-05-18T18:05:01.411Z,5.60
2019-05-18T18:07:30.419Z,4.93
2019-05-18T18:09:59.308Z,5.80
2019-05-18T18:12:28.276Z,5.00
2019-05-18T18:14:57.261Z,5.43
2019-05-18T18:17:26.216Z,5.17
2019-05-18T18:19:55.177Z,5.43
2019-05-18T18:22:24.101Z,5.30
2019-05-18T18:24:53.066Z,5.13
2019-05-18T18:27:25.079Z,5.77
2019-05-18T18:29:52.700Z,5.57
2019-05-18T18:32:21.592Z,6.00
2019-05-18T18:34:50.474Z,6.70
2019-05-18T18:37:19.405Z,6.70
2019-05-18T18:39:48.475Z,5.10
2019-05-18T18:42:17.510Z,5.30
2019-05-18T18:44:46.495Z,4.80
2019-05-18T18:47:15.386Z,4.90
2019-05-18T18:49:44.353Z,5.13
2019-05-18T18:52:13.281Z,4.47
2019-05-18T18:54:42.191Z,5.20
2019-05-18T18:57:11.073Z,4.20
2019-05-18T18:59:40.016Z,4.53
2019-05-18T19:02:08.903Z,4.60
2019-05-18T19:04:37.778Z,5.30
2019-05-18T19:07:09.104Z,5.13
2019-05-18T19:09:37.357Z,5.10
2019-05-18T19:12:06.288Z,4.60
2019-05-18T19:14:35.178Z,4.50
2019-05-18T19:17:04.141Z,4.80
2019-05-18T19:19:33.158Z,5.00
2019-05-18T19:22:02.054Z,4.67
2019-05-18T19:24:30.940Z,4.90
2019-05-18T19:26:59.899Z,4.83
2019-05-18T19:29:28.930Z,4.57
2019-05-18T19:31:57.814Z,5.50
2019-05-18T19:34:27.786Z,4.90
2019-05-18T19:36:56.691Z,5.10
2019-05-18T19:39:25.750Z,5.60
2019-05-18T19:41:54.661Z,4.70
2019-05-18T19:44:24.088Z,4.90
2019-05-18T19:46:53.087Z,4.63
2019-05-18T19:49:22.020Z,4.97
2019-05-18T19:51:51.074Z,5.30
2019-05-18T19:54:19.969Z,4.13
2019-05-18T19:56:48.891Z,4.30
2019-05-18T19:59:17.858Z,3.93
2019-05-18T20:01:46.761Z,4.53
2019-05-18T20:04:15.675Z,4.03
2019-05-18T20:06:44.636Z,4.60
2019-05-18T20:09:13.538Z,4.63
2019-05-18T20:11:42.471Z,4.23
2019-05-18T20:14:11.367Z,5.00
2019-05-18T20:16:40.296Z,5.03
2019-05-18T20:19:09.252Z,4.30
2019-05-18T20:21:40.815Z,4.20
2019-05-18T20:24:09.708Z,4.57
2019-05-18T20:26:39.580Z,4.47
2019-05-18T20:29:08.494Z,4.20
2019-05-18T20:31:37.466Z,4.17
2019-05-18T20:34:06.351Z,4.30
2019-05-18T20:36:35.273Z,3.70
2019-05-18T20:39:04.838Z,4.70
2019-05-18T20:41:33.862Z,4.13
2019-05-18T20:44:02.852Z,4.77
2019-05-18T20:46:31.741Z,4.00
2019-05-18T20:49:00.623Z,3.43
2019-05-18T20:51:29.548Z,3.80
2019-05-18T20:53:58.433Z,4.10
2019-05-18T20:56:27.385Z,4.27
2019-05-18T20:58:56.434Z,5.20
2019-05-18T21:01:25.321Z,4.90
2019-05-18T21:03:54.214Z,4.63
2019-05-18T21:06:23.141Z,4.60
2019-05-18T21:08:52.033Z,4.73
2019-05-18T21:11:20.927Z,4.90
2019-05-18T21:13:49.878Z,4.60
2019-05-18T21:16:18.774Z,4.27
2019-05-18T21:18:47.741Z,4.53
2019-05-18T21:21:16.853Z,5.03
2019-05-18T21:23:45.741Z,4.83
2019-05-18T21:26:14.643Z,4.97
2019-05-18T21:28:56.177Z,5.57
2019-05-18T21:31:14.149Z,4.73
2019-05-18T21:33:43.044Z,4.70
2019-05-18T21:36:11.979Z,5.30
2019-05-18T21:38:40.868Z,5.53
2019-05-18T21:41:09.769Z,4.33
2019-05-18T21:43:38.695Z,5.00
2019-05-18T21:46:07.587Z,4.40
2019-05-18T21:48:36.473Z,4.83
2019-05-18T21:51:05.449Z,4.53
2019-05-18T21:53:34.413Z,5.20
2019-05-18T21:56:03.369Z,5.90
2019-05-18T21:58:32.461Z,5.63
2019-05-18T22:01:01.483Z,5.77
2019-05-18T22:03:30.488Z,6.10
2019-05-18T22:05:59.468Z,5.90
2019-05-18T22:08:28.429Z,5.63
2019-05-18T22:10:57.313Z,4.10
2019-05-18T22:13:26.303Z,3.67
2019-05-18T22:15:55.262Z,3.70
2019-05-18T22:18:25.058Z,4.00
2019-05-18T22:20:54.110Z,4.00
2019-05-18T22:23:22.999Z,3.50
2019-05-18T22:25:52.152Z,3.33
2019-05-18T22:28:21.084Z,4.00
2019-05-18T22:30:49.969Z,3.57
2019-05-18T22:33:18.861Z,3.60
2019-05-18T22:35:48.942Z,4.03
2019-05-18T22:38:18.858Z,4.00
2019-05-18T22:40:47.758Z,4.60
2019-05-18T22:43:16.744Z,5.03
2019-05-18T22:45:45.642Z,4.80
2019-05-18T22:48:14.543Z,5.17
2019-05-18T22:50:43.633Z,5.67
2019-05-18T22:53:12.529Z,5.40
2019-05-18T22:55:41.426Z,6.03
2019-05-18T22:58:10.343Z,6.10
2019-05-18T23:00:39.234Z,9.10
2019-05-18T23:03:08.132Z,7.43
2019-05-18T23:05:37.063Z,7.17
2019-05-18T23:08:05.944Z,5.00
2019-05-18T23:10:34.845Z,5.40
2019-05-18T23:13:03.750Z,4.90
2019-05-18T23:15:32.733Z,5.00
2019-05-18T23:18:02.778Z,4.93
2019-05-18T23:20:31.713Z,5.37
2019-05-18T23:23:00.622Z,4.93
2019-05-18T23:25:29.568Z,4.90
2019-05-18T23:27:58.508Z,5.50
2019-05-18T23:30:27.473Z,5.20
2019-05-18T23:32:56.360Z,5.50
2019-05-18T23:35:25.341Z,6.43
2019-05-18T23:37:55.295Z,6.07
2019-05-18T23:40:24.194Z,6.40
2019-05-18T23:42:53.172Z,7.20
2019-05-18T23:45:22.129Z,7.00
2019-05-18T23:47:51.291Z,7.70
2019-05-18T23:50:20.272Z,7.40
2019-05-18T23:52:49.179Z,7.57
2019-05-18T23:55:18.139Z,7.50
2019-05-18T23:57:47.037Z,7.97
